sensor_id;sensor_type;location;lat;lon;timestamp;pressure;altitude;pressure_sealevel;temperature;humidity
9091;BME280;4581;42.416;25.598;2024-03-08T00:00:45;98548.13;;;6.00;100.00
9091;BME280;4581;42.416;25.598;2024-03-08T00:03:12;98530.38;;;5.99;100.00
9091;BME280;4581;42.416;25.598;2024-03-08T00:05:38;98537.84;;;6.05;100.00
9091;BME280;4581;42.416;25.598;2024-03-08T00:08:06;98536.97;;;6.04;100.00
9091;BME280;4581;42.416;25.598;2024-03-08T00:10:36;98535.16;;;6.05;100.00
9091;BME280;4581;42.416;25.598;2024-03-08T00:13:06;98527.69;;;5.99;100.00
9091;BME280;4581;42.416;25.598;2024-03-08T00:15:33;98525.91;;;5.90;100.00
9091;BME280;4581;42.416;25.598;2024-03-08T00:17:59;98528.69;;;5.98;100.00
9091;BME280;4581;42.416;25.598;2024-03-08T00:20:26;98518.88;;;5.89;100.00
9091;BME280;4581;42.416;25.598;2024-03-08T00:22:53;98528.03;;;5.86;100.00
9091;BME280;4581;42.416;25.598;2024-03-08T00:25:20;98525.91;;;5.90;100.00
9091;BME280;4581;42.416;25.598;2024-03-08T00:27:46;98517.31;;;5.86;100.00
9091;BME280;4581;42.416;25.598;2024-03-08T00:30:16;98518.03;;;5.79;100.00
9091;BME280;4581;42.416;25.598;2024-03-08T00:32:43;98515.75;;;5.84;100.00
9091;BME280;4581;42.416;25.598;2024-03-08T00:35:10;98526.19;;;5.87;100.00
9091;BME280;4581;42.416;25.598;2024-03-08T00:37:37;98522.38;;;5.80;100.00
9091;BME280;4581;42.416;25.598;2024-03-08T00:40:04;98531.03;;;5.64;100.00
9091;BME280;4581;42.416;25.598;2024-03-08T00:42:33;98530.06;;;5.55;100.00
9091;BME280;4581;42.416;25.598;2024-03-08T00:45:01;98527.38;;;5.55;100.00
9091;BME280;4581;42.416;25.598;2024-03-08T00:47:28;98525.13;;;5.60;100.00
9091;BME280;4581;42.416;25.598;2024-03-08T00:49:55;98520.47;;;5.62;100.00
9091;BME280;4581;42.416;25.598;2024-03-08T00:52:23;98516.97;;;5.52;100.00
9091;BME280;4581;42.416;25.598;2024-03-08T00:54:53;98517.41;;;5.57;100.00
9091;BME280;4581;42.416;25.598;2024-03-08T00:57:19;98518.09;;;5.59;100.00
9091;BME280;4581;42.416;25.598;2024-03-08T00:59:47;98520.06;;;5.57;100.00
9091;BME280;4581;42.416;25.598;2024-03-08T01:02:14;98524.16;;;5.52;100.00
9091;BME280;4581;42.416;25.598;2024-03-08T01:04:43;98528.78;;;5.59;100.00
9091;BME280;4581;42.416;25.598;2024-03-08T01:07:10;98528.09;;;5.57;100.00
9091;BME280;4581;42.416;25.598;2024-03-08T01:09:37;98528.22;;;5.56;100.00
9091;BME280;4581;42.416;25.598;2024-03-08T01:12:03;98528.22;;;5.46;100.00
9091;BME280;4581;42.416;25.598;2024-03-08T01:14:31;98524.72;;;5.46;100.00
9091;BME280;4581;42.416;25.598;2024-03-08T01:16:58;98531.19;;;5.53;100.00
9091;BME280;4581;42.416;25.598;2024-03-08T01:19:25;98533.88;;;5.53;100.00
9091;BME280;4581;42.416;25.598;2024-03-08T01:21:52;98538.06;;;5.55;100.00
9091;BME280;4581;42.416;25.598;2024-03-08T01:24:19;98524.84;;;5.54;100.00
9091;BME280;4581;42.416;25.598;2024-03-08T01:26:46;98531.75;;;5.56;100.00
9091;BME280;4581;42.416;25.598;2024-03-08T01:29:13;98534.13;;;5.59;100.00
9091;BME280;4581;42.416;25.598;2024-03-08T01:31:40;98532.72;;;5.55;100.00
9091;BME280;4581;42.416;25.598;2024-03-08T01:34:06;98525.41;;;5.57;100.00
9091;BME280;4581;42.416;25.598;2024-03-08T01:36:33;98530.78;;;5.48;100.00
9091;BME280;4581;42.416;25.598;2024-03-08T01:39:00;98526.00;;;5.42;100.00
9091;BME280;4581;42.416;25.598;2024-03-08T01:41:26;98529.81;;;5.39;100.00
9091;BME280;4581;42.416;25.598;2024-03-08T01:43:56;98536.28;;;5.37;100.00
9091;BME280;4581;42.416;25.598;2024-03-08T01:46:23;98540.50;;;5.39;100.00
9091;BME280;4581;42.416;25.598;2024-03-08T01:48:50;98544.00;;;5.30;100.00
9091;BME280;4581;42.416;25.598;2024-03-08T01:51:20;98544.84;;;5.31;100.00
9091;BME280;4581;42.416;25.598;2024-03-08T01:53:47;98549.09;;;5.33;100.00
9091;BME280;4581;42.416;25.598;2024-03-08T01:56:15;98559.19;;;5.30;100.00
9091;BME280;4581;42.416;25.598;2024-03-08T01:58:42;98549.38;;;5.21;100.00
9091;BME280;4581;42.416;25.598;2024-03-08T02:01:13;98542.78;;;5.25;100.00
9091;BME280;4581;42.416;25.598;2024-03-08T02:03:44;98551.34;;;5.28;100.00
9091;BME280;4581;42.416;25.598;2024-03-08T02:06:12;98543.19;;;5.20;100.00
9091;BME280;4581;42.416;25.598;2024-03-08T02:08:42;98544.72;;;5.23;100.00
9091;BME280;4581;42.416;25.598;2024-03-08T02:11:10;98543.75;;;5.24;100.00
9091;BME280;4581;42.416;25.598;2024-03-08T02:13:37;98552.19;;;5.19;100.00
9091;BME280;4581;42.416;25.598;2024-03-08T02:16:04;98546.28;;;5.25;100.00
9091;BME280;4581;42.416;25.598;2024-03-08T02:18:32;98545.16;;;5.28;100.00
9091;BME280;4581;42.416;25.598;2024-03-08T02:21:02;98544.00;;;5.30;100.00
9091;BME280;4581;42.416;25.598;2024-03-08T02:23:36;98542.47;;;5.37;100.00
9091;BME280;4581;42.416;25.598;2024-03-08T02:26:04;98548.22;;;5.42;100.00
9091;BME280;4581;42.416;25.598;2024-03-08T02:28:31;98551.44;;;5.46;100.00
9091;BME280;4581;42.416;25.598;2024-03-08T02:30:58;98551.31;;;5.47;100.00
9091;BME280;4581;42.416;25.598;2024-03-08T02:33:26;98559.88;;;5.51;100.00
9091;BME280;4581;42.416;25.598;2024-03-08T02:35:53;98547.97;;;5.45;100.00
9091;BME280;4581;42.416;25.598;2024-03-08T02:38:22;98543.16;;;5.49;100.00
9091;BME280;4581;42.416;25.598;2024-03-08T02:40:50;98549.63;;;5.46;100.00
9091;BME280;4581;42.416;25.598;2024-03-08T02:43:18;98544.28;;;5.46;100.00
9091;BME280;4581;42.416;25.598;2024-03-08T02:45:46;98544.69;;;5.51;100.00
9091;BME280;4581;42.416;25.598;2024-03-08T02:48:14;98550.34;;;5.48;100.00
9091;BME280;4581;42.416;25.598;2024-03-08T02:50:41;98549.38;;;5.49;100.00
9091;BME280;4581;42.416;25.598;2024-03-08T02:53:09;98546.25;;;5.44;100.00
9091;BME280;4581;42.416;25.598;2024-03-08T02:55:40;98545.13;;;5.47;100.00
9091;BME280;4581;42.416;25.598;2024-03-08T02:58:08;98544.56;;;5.43;100.00
9091;BME280;4581;42.416;25.598;2024-03-08T03:00:38;98542.19;;;5.40;100.00
9091;BME280;4581;42.416;25.598;2024-03-08T03:03:06;98544.88;;;5.40;100.00
9091;BME280;4581;42.416;25.598;2024-03-08T03:05:33;98533.06;;;5.33;100.00
9091;BME280;4581;42.416;25.598;2024-03-08T03:08:00;98536.72;;;5.32;100.00
9091;BME280;4581;42.416;25.598;2024-03-08T03:10:27;98539.81;;;5.37;100.00
9091;BME280;4581;42.416;25.598;2024-03-08T03:12:54;98535.44;;;5.36;100.00
9091;BME280;4581;42.416;25.598;2024-03-08T03:15:21;98531.63;;;5.39;100.00
9091;BME280;4581;42.416;25.598;2024-03-08T03:17:50;98531.50;;;5.40;100.00
9091;BME280;4581;42.416;25.598;2024-03-08T03:20:18;98531.63;;;5.39;100.00
9091;BME280;4581;42.416;25.598;2024-03-08T03:22:59;98538.81;;;5.38;100.00
9091;BME280;4581;42.416;25.598;2024-03-08T03:25:30;98542.88;;;5.42;100.00
9091;BME280;4581;42.416;25.598;2024-03-08T03:28:02;98544.56;;;5.43;100.00
9091;BME280;4581;42.416;25.598;2024-03-08T03:30:29;98544.88;;;5.40;100.00
9091;BME280;4581;42.416;25.598;2024-03-08T03:33:00;98543.88;;;5.32;100.00
9091;BME280;4581;42.416;25.598;2024-03-08T03:35:28;98543.47;;;5.27;100.00
9091;BME280;4581;42.416;25.598;2024-03-08T03:37:56;98544.19;;;5.29;100.00
9091;BME280;4581;42.416;25.598;2024-03-08T03:40:37;98544.84;;;5.31;100.00
9091;BME280;4581;42.416;25.598;2024-03-08T03:43:05;98540.09;;;5.25;100.00
9091;BME280;4581;42.416;25.598;2024-03-08T03:45:32;98543.63;;;5.25;100.00
9091;BME280;4581;42.416;25.598;2024-03-08T03:48:05;98542.59;;;5.26;100.00
9091;BME280;4581;42.416;25.598;2024-03-08T03:50:34;98534.88;;;5.23;100.00
9091;BME280;4581;42.416;25.598;2024-03-08T03:53:03;98548.25;;;5.23;100.00
9091;BME280;4581;42.416;25.598;2024-03-08T03:55:30;98547.00;;;5.17;100.00
9091;BME280;4581;42.416;25.598;2024-03-08T03:57:57;98533.34;;;5.11;100.00
9091;BME280;4581;42.416;25.598;2024-03-08T04:00:26;98549.25;;;5.12;100.00
9091;BME280;4581;42.416;25.598;2024-03-08T04:02:54;98552.19;;;5.19;100.00
9091;BME280;4581;42.416;25.598;2024-03-08T04:05:21;98555.03;;;5.17;100.00
9091;BME280;4581;42.416;25.598;2024-03-08T04:07:48;98541.75;;;5.26;100.00
9091;BME280;4581;42.416;25.598;2024-03-08T04:10:15;98550.63;;;5.26;100.00
9091;BME280;4581;42.416;25.598;2024-03-08T04:12:42;98551.06;;;5.31;100.00
9091;BME280;4581;42.416;25.598;2024-03-08T04:15:09;98544.59;;;5.24;100.00
9091;BME280;4581;42.416;25.598;2024-03-08T04:17:38;98541.50;;;5.19;100.00
9091;BME280;4581;42.416;25.598;2024-03-08T04:20:06;98548.25;;;5.33;100.00
9091;BME280;4581;42.416;25.598;2024-03-08T04:22:41;98551.34;;;5.28;100.00
9091;BME280;4581;42.416;25.598;2024-03-08T04:25:09;98555.00;;;5.37;100.00
9091;BME280;4581;42.416;25.598;2024-03-08T04:27:36;98555.69;;;5.39;100.00
9091;BME280;4581;42.416;25.598;2024-03-08T04:30:03;98553.00;;;5.39;100.00
9091;BME280;4581;42.416;25.598;2024-03-08T04:32:30;98553.16;;;5.47;100.00
9091;BME280;4581;42.416;25.598;2024-03-08T04:35:00;98556.94;;;5.54;100.00
9091;BME280;4581;42.416;25.598;2024-03-08T04:37:30;98558.06;;;5.51;100.00
9091;BME280;4581;42.416;25.598;2024-03-08T04:39:57;98547.25;;;5.53;100.00
9091;BME280;4581;42.416;25.598;2024-03-08T04:42:24;98556.50;;;5.58;100.00
9091;BME280;4581;42.416;25.598;2024-03-08T04:44:52;98554.41;;;5.52;100.00
9091;BME280;4581;42.416;25.598;2024-03-08T04:47:20;98554.53;;;5.51;100.00
9091;BME280;4581;42.416;25.598;2024-03-08T04:49:47;98554.13;;;5.55;100.00
9091;BME280;4581;42.416;25.598;2024-03-08T04:52:13;98559.88;;;5.60;100.00
9091;BME280;4581;42.416;25.598;2024-03-08T04:54:40;98556.38;;;5.60;100.00
9091;BME280;4581;42.416;25.598;2024-03-08T04:57:07;98558.50;;;5.56;100.00
9091;BME280;4581;42.416;25.598;2024-03-08T04:59:35;98567.75;;;5.62;100.00
9091;BME280;4581;42.416;25.598;2024-03-08T05:02:03;98564.25;;;5.61;100.00
9091;BME280;4581;42.416;25.598;2024-03-08T05:04:29;98565.91;;;5.62;100.00
9091;BME280;4581;42.416;25.598;2024-03-08T05:06:56;98563.66;;;5.68;100.00
9091;BME280;4581;42.416;25.598;2024-03-08T05:09:23;98568.72;;;5.71;100.00
9091;BME280;4581;42.416;25.598;2024-03-08T05:11:50;98565.06;;;5.72;100.00
9091;BME280;4581;42.416;25.598;2024-03-08T05:14:17;98563.94;;;5.74;100.00
9091;BME280;4581;42.416;25.598;2024-03-08T05:16:46;98572.53;;;5.78;100.00
9091;BME280;4581;42.416;25.598;2024-03-08T05:19:20;98579.41;;;5.80;100.00
9091;BME280;4581;42.416;25.598;2024-03-08T05:21:48;98577.03;;;5.77;100.00
9091;BME280;4581;42.416;25.598;2024-03-08T05:24:15;98586.44;;;5.91;100.00
9091;BME280;4581;42.416;25.598;2024-03-08T05:26:43;98591.13;;;5.89;100.00
9091;BME280;4581;42.416;25.598;2024-03-08T05:29:10;98594.34;;;5.92;100.00
9091;BME280;4581;42.416;25.598;2024-03-08T05:31:55;98598.97;;;5.90;100.00
9091;BME280;4581;42.416;25.598;2024-03-08T05:34:24;98587.72;;;5.87;100.00
9091;BME280;4581;42.416;25.598;2024-03-08T05:36:51;98598.00;;;5.91;100.00
9091;BME280;4581;42.416;25.598;2024-03-08T05:39:20;98598.53;;;5.95;100.00
9091;BME280;4581;42.416;25.598;2024-03-08T05:41:47;98588.13;;;6.01;100.00
9091;BME280;4581;42.416;25.598;2024-03-08T05:44:14;98593.19;;;6.04;100.00
9091;BME280;4581;42.416;25.598;2024-03-08T05:46:43;98597.56;;;6.05;100.00
9091;BME280;4581;42.416;25.598;2024-03-08T05:49:10;98605.28;;;6.08;100.00
9091;BME280;4581;42.416;25.598;2024-03-08T05:51:39;98605.28;;;6.08;100.00
9091;BME280;4581;42.416;25.598;2024-03-08T05:54:08;98605.13;;;6.10;100.00
9091;BME280;4581;42.416;25.598;2024-03-08T05:56:38;98609.19;;;6.14;100.00
9091;BME280;4581;42.416;25.598;2024-03-08T05:59:05;98605.13;;;6.10;100.00
9091;BME280;4581;42.416;25.598;2024-03-08T06:01:32;98612.56;;;6.16;100.00
9091;BME280;4581;42.416;25.598;2024-03-08T06:03:59;98622.84;;;6.21;100.00
9091;BME280;4581;42.416;25.598;2024-03-08T06:06:26;98610.88;;;6.25;100.00
9091;BME280;4581;42.416;25.598;2024-03-08T06:08:53;98616.16;;;6.34;100.00
9091;BME280;4581;42.416;25.598;2024-03-08T06:11:20;98613.22;;;6.37;100.00
9091;BME280;4581;42.416;25.598;2024-03-08T06:13:47;98624.91;;;6.36;100.00
9091;BME280;4581;42.416;25.598;2024-03-08T06:16:14;98624.16;;;6.44;100.00
9091;BME280;4581;42.416;25.598;2024-03-08T06:18:41;98625.81;;;6.54;100.00
9091;BME280;4581;42.416;25.598;2024-03-08T06:21:08;98627.19;;;6.58;100.00
9091;BME280;4581;42.416;25.598;2024-03-08T06:23:39;98621.28;;;6.55;100.00
9091;BME280;4581;42.416;25.598;2024-03-08T06:26:09;98624.69;;;6.57;100.00
9091;BME280;4581;42.416;25.598;2024-03-08T06:28:36;98626.75;;;6.63;100.00
9091;BME280;4581;42.416;25.598;2024-03-08T06:31:03;98636.19;;;6.67;100.00
9091;BME280;4581;42.416;25.598;2024-03-08T06:33:30;98635.63;;;6.64;100.00
9091;BME280;4581;42.416;25.598;2024-03-08T06:35:59;98635.50;;;6.65;100.00
9091;BME280;4581;42.416;25.598;2024-03-08T06:38:26;98633.50;;;6.67;100.00
9091;BME280;4581;42.416;25.598;2024-03-08T06:40:53;98644.28;;;6.57;100.00
9091;BME280;4581;42.416;25.598;2024-03-08T06:43:22;98641.50;;;6.49;100.00
9091;BME280;4581;42.416;25.598;2024-03-08T06:45:48;98649.38;;;6.51;100.00
9091;BME280;4581;42.416;25.598;2024-03-08T06:48:19;98650.50;;;6.48;100.00
9091;BME280;4581;42.416;25.598;2024-03-08T06:50:46;98647.72;;;6.40;100.00
9091;BME280;4581;42.416;25.598;2024-03-08T06:53:14;98648.56;;;6.41;100.00
9091;BME280;4581;42.416;25.598;2024-03-08T06:55:43;98656.50;;;6.33;100.00
9091;BME280;4581;42.416;25.598;2024-03-08T06:58:11;98660.16;;;6.22;100.00
9091;BME280;4581;42.416;25.598;2024-03-08T07:00:37;98661.56;;;6.26;100.00
9091;BME280;4581;42.416;25.598;2024-03-08T07:03:07;98659.31;;;6.31;100.00
9091;BME280;4581;42.416;25.598;2024-03-08T07:05:38;98660.75;;;6.26;100.00
9091;BME280;4581;42.416;25.598;2024-03-08T07:08:07;98663.84;;;6.21;100.00
9091;BME280;4581;42.416;25.598;2024-03-08T07:10:34;98672.00;;;6.20;100.00
9091;BME280;4581;42.416;25.598;2024-03-08T07:13:01;98672.44;;;6.25;100.00
9091;BME280;4581;42.416;25.598;2024-03-08T07:15:30;98680.41;;;6.34;100.00
9091;BME280;4581;42.416;25.598;2024-03-08T07:17:57;98673.41;;;6.33;100.00
9091;BME280;4581;42.416;25.598;2024-03-08T07:20:26;98689.72;;;6.30;100.00
9091;BME280;4581;42.416;25.598;2024-03-08T07:22:53;98684.09;;;6.33;100.00
9091;BME280;4581;42.416;25.598;2024-03-08T07:25:20;98682.84;;;6.37;100.00
9091;BME280;4581;42.416;25.598;2024-03-08T07:27:49;98691.44;;;6.31;100.00
9091;BME280;4581;42.416;25.598;2024-03-08T07:30:16;98687.06;;;6.30;100.00
9091;BME280;4581;42.416;25.598;2024-03-08T07:33:04;98690.44;;;6.32;100.00
9091;BME280;4581;42.416;25.598;2024-03-08T07:35:31;98693.13;;;6.32;100.00
9091;BME280;4581;42.416;25.598;2024-03-08T07:37:57;98691.84;;;6.36;100.00
9091;BME280;4581;42.416;25.598;2024-03-08T07:40:26;98695.19;;;6.38;100.00
9091;BME280;4581;42.416;25.598;2024-03-08T07:42:53;98693.09;;;6.42;100.00
9091;BME280;4581;42.416;25.598;2024-03-08T07:45:20;98696.66;;;6.33;100.00
9091;BME280;4581;42.416;25.598;2024-03-08T07:47:48;98696.78;;;6.31;100.00
9091;BME280;4581;42.416;25.598;2024-03-08T07:50:15;98700.19;;;6.33;100.00
9091;BME280;4581;42.416;25.598;2024-03-08T07:52:43;98694.38;;;6.38;100.00
9091;BME280;4581;42.416;25.598;2024-03-08T07:55:10;98699.00;;;6.45;100.00
9091;BME280;4581;42.416;25.598;2024-03-08T07:57:39;98701.28;;;6.40;100.00
9091;BME280;4581;42.416;25.598;2024-03-08T08:00:06;98690.56;;;6.31;100.00
9091;BME280;4581;42.416;25.598;2024-03-08T08:02:35;98694.81;;;6.33;100.00
9091;BME280;4581;42.416;25.598;2024-03-08T08:05:06;98704.25;;;6.37;100.00
9091;BME280;4581;42.416;25.598;2024-03-08T08:07:33;98705.06;;;6.47;100.00
9091;BME280;4581;42.416;25.598;2024-03-08T08:10:00;98708.56;;;6.57;100.00
9091;BME280;4581;42.416;25.598;2024-03-08T08:12:26;98706.13;;;6.64;100.00
9091;BME280;4581;42.416;25.598;2024-03-08T08:14:54;98699.50;;;6.58;100.00
9091;BME280;4581;42.416;25.598;2024-03-08T08:17:21;98700.91;;;6.63;100.00
9091;BME280;4581;42.416;25.598;2024-03-08T08:19:48;98707.09;;;6.73;100.00
9091;BME280;4581;42.416;25.598;2024-03-08T08:22:15;98711.28;;;6.85;100.00
9091;BME280;4581;42.416;25.598;2024-03-08T08:24:41;98709.00;;;6.90;100.00
9091;BME280;4581;42.416;25.598;2024-03-08T08:27:08;98718.88;;;6.89;100.00
9091;BME280;4581;42.416;25.598;2024-03-08T08:29:35;98698.81;;;6.93;100.00
9091;BME280;4581;42.416;25.598;2024-03-08T08:32:02;98709.47;;;7.03;100.00
9091;BME280;4581;42.416;25.598;2024-03-08T08:34:30;98704.63;;;6.89;100.00
9091;BME280;4581;42.416;25.598;2024-03-08T08:36:58;98706.81;;;7.03;100.00
9091;BME280;4581;42.416;25.598;2024-03-08T08:39:24;98708.59;;;7.12;100.00
9091;BME280;4581;42.416;25.598;2024-03-08T08:41:52;98719.63;;;7.09;100.00
9091;BME280;4581;42.416;25.598;2024-03-08T08:44:21;98714.28;;;6.99;100.00
9091;BME280;4581;42.416;25.598;2024-03-08T08:46:48;98719.44;;;6.83;100.00
9091;BME280;4581;42.416;25.598;2024-03-08T08:49:18;98725.25;;;6.79;100.00
9091;BME280;4581;42.416;25.598;2024-03-08T08:51:50;98728.44;;;6.92;100.00
9091;BME280;4581;42.416;25.598;2024-03-08T08:54:18;98722.97;;;6.84;100.00
9091;BME280;4581;42.416;25.598;2024-03-08T08:56:45;98725.66;;;6.84;100.00
9091;BME280;4581;42.416;25.598;2024-03-08T08:59:11;98716.28;;;6.97;100.00
9091;BME280;4581;42.416;25.598;2024-03-08T09:01:40;98723.78;;;7.21;100.00
9091;BME280;4581;42.416;25.598;2024-03-08T09:04:07;98731.00;;;7.21;100.00
9091;BME280;4581;42.416;25.598;2024-03-08T09:06:34;98723.53;;;7.15;100.00
9091;BME280;4581;42.416;25.598;2024-03-08T09:09:02;98730.91;;;7.30;100.00
9091;BME280;4581;42.416;25.598;2024-03-08T09:11:32;98725.06;;;7.44;100.00
9091;BME280;4581;42.416;25.598;2024-03-08T09:13:59;98731.53;;;7.69;100.00
9091;BME280;4581;42.416;25.598;2024-03-08T09:16:26;98729.53;;;7.89;100.00
9091;BME280;4581;42.416;25.598;2024-03-08T09:18:53;98728.69;;;7.88;99.19
9091;BME280;4581;42.416;25.598;2024-03-08T09:21:19;98734.22;;;8.05;98.56
9091;BME280;4581;42.416;25.598;2024-03-08T09:23:49;98738.19;;;8.00;96.90
9091;BME280;4581;42.416;25.598;2024-03-08T09:26:16;98738.13;;;8.10;96.41
9091;BME280;4581;42.416;25.598;2024-03-08T09:28:54;98735.56;;;7.91;94.81
9091;BME280;4581;42.416;25.598;2024-03-08T09:31:23;98740.44;;;7.70;95.63
9091;BME280;4581;42.416;25.598;2024-03-08T09:33:50;98737.28;;;7.74;97.78
9091;BME280;4581;42.416;25.598;2024-03-08T09:36:17;98736.13;;;7.77;98.88
9091;BME280;4581;42.416;25.598;2024-03-08T09:38:44;98728.59;;;7.63;100.00
9091;BME280;4581;42.416;25.598;2024-03-08T09:41:10;98739.94;;;7.57;100.00
9091;BME280;4581;42.416;25.598;2024-03-08T09:43:38;98731.34;;;7.53;100.00
9091;BME280;4581;42.416;25.598;2024-03-08T09:46:06;98724.91;;;7.46;100.00
9091;BME280;4581;42.416;25.598;2024-03-08T09:48:34;98728.50;;;7.37;100.00
9091;BME280;4581;42.416;25.598;2024-03-08T09:51:03;98725.56;;;7.30;100.00
9091;BME280;4581;42.416;25.598;2024-03-08T09:53:30;98732.59;;;7.14;100.00
9091;BME280;4581;42.416;25.598;2024-03-08T09:55:57;98727.41;;;7.02;100.00
9091;BME280;4581;42.416;25.598;2024-03-08T09:58:25;98729.63;;;7.07;100.00
9091;BME280;4581;42.416;25.598;2024-03-08T10:01:03;98726.00;;;6.98;100.00
9091;BME280;4581;42.416;25.598;2024-03-08T10:03:31;98732.06;;;7.00;100.00
9091;BME280;4581;42.416;25.598;2024-03-08T10:06:01;98730.91;;;7.03;100.00
9091;BME280;4581;42.416;25.598;2024-03-08T10:08:28;98729.63;;;7.07;100.00
9091;BME280;4581;42.416;25.598;2024-03-08T10:10:56;98728.69;;;6.98;100.00
9091;BME280;4581;42.416;25.598;2024-03-08T10:13:26;98738.09;;;7.12;100.00
9091;BME280;4581;42.416;25.598;2024-03-08T10:15:54;98733.34;;;7.06;100.00
9091;BME280;4581;42.416;25.598;2024-03-08T10:18:21;98732.72;;;7.12;100.00
9091;BME280;4581;42.416;25.598;2024-03-08T10:21:03;98735.81;;;6.90;100.00
9091;BME280;4581;42.416;25.598;2024-03-08T10:23:34;98729.53;;;6.99;100.00
9091;BME280;4581;42.416;25.598;2024-03-08T10:26:14;98732.38;;;6.97;100.00
9091;BME280;4581;42.416;25.598;2024-03-08T10:28:42;98737.91;;;6.86;100.00
9091;BME280;4581;42.416;25.598;2024-03-08T10:31:11;98734.69;;;6.83;100.00
9091;BME280;4581;42.416;25.598;2024-03-08T10:33:39;98735.81;;;6.90;100.00
9091;BME280;4581;42.416;25.598;2024-03-08T10:36:07;98732.84;;;6.83;100.00
9091;BME280;4581;42.416;25.598;2024-03-08T10:38:38;98735.69;;;6.82;100.00
9091;BME280;4581;42.416;25.598;2024-03-08T10:41:08;98728.34;;;6.74;100.00
9091;BME280;4581;42.416;25.598;2024-03-08T10:46:30;98726.06;;;6.89;100.00
9091;BME280;4581;42.416;25.598;2024-03-08T10:49:00;98733.81;;;6.92;100.00
9091;BME280;4581;42.416;25.598;2024-03-08T10:51:31;98723.28;;;7.08;100.00
9091;BME280;4581;42.416;25.598;2024-03-08T10:53:59;98723.50;;;6.97;100.00
9091;BME280;4581;42.416;25.598;2024-03-08T10:56:26;98722.59;;;7.06;100.00
9091;BME280;4581;42.416;25.598;2024-03-08T10:58:54;98721.00;;;7.13;100.00
9091;BME280;4581;42.416;25.598;2024-03-08T11:01:22;98728.03;;;7.14;100.00
9091;BME280;4581;42.416;25.598;2024-03-08T11:03:52;98719.09;;;7.23;100.00
9091;BME280;4581;42.416;25.598;2024-03-08T11:06:30;98718.25;;;7.23;100.00
9091;BME280;4581;42.416;25.598;2024-03-08T11:08:58;98718.34;;;7.13;100.00
9091;BME280;4581;42.416;25.598;2024-03-08T11:11:28;98716.44;;;7.23;100.00
9091;BME280;4581;42.416;25.598;2024-03-08T11:14:01;98718.88;;;7.17;100.00
9091;BME280;4581;42.416;25.598;2024-03-08T11:21:31;98707.00;;;6.92;100.00
9091;BME280;4581;42.416;25.598;2024-03-08T11:24:01;98721.28;;;6.83;100.00
9091;BME280;4581;42.416;25.598;2024-03-08T11:26:29;98719.31;;;6.85;100.00
9091;BME280;4581;42.416;25.598;2024-03-08T11:31:52;98707.50;;;6.78;100.00
9091;BME280;4581;42.416;25.598;2024-03-08T11:34:19;98716.22;;;6.80;100.00
9091;BME280;4581;42.416;25.598;2024-03-08T11:36:48;98710.97;;;6.88;100.00
9091;BME280;4581;42.416;25.598;2024-03-08T11:39:16;98708.28;;;6.88;100.00
9091;BME280;4581;42.416;25.598;2024-03-08T11:41:43;98700.38;;;6.86;100.00
9091;BME280;4581;42.416;25.598;2024-03-08T11:44:11;98699.56;;;6.86;100.00
9091;BME280;4581;42.416;25.598;2024-03-08T11:46:42;98705.84;;;6.94;100.00
9091;BME280;4581;42.416;25.598;2024-03-08T11:49:14;98702.72;;;6.99;100.00
9091;BME280;4581;42.416;25.598;2024-03-08T11:51:41;98695.09;;;7.04;100.00
9091;BME280;4581;42.416;25.598;2024-03-08T11:54:12;98704.06;;;7.13;100.00
9091;BME280;4581;42.416;25.598;2024-03-08T11:56:39;98706.44;;;7.16;100.00
9091;BME280;4581;42.416;25.598;2024-03-08T11:59:11;98701.00;;;7.07;100.00
9091;BME280;4581;42.416;25.598;2024-03-08T12:01:39;98703.97;;;7.04;100.00
9091;BME280;4581;42.416;25.598;2024-03-08T12:04:06;98704.53;;;7.08;100.00
9091;BME280;4581;42.416;25.598;2024-03-08T12:06:40;98706.00;;;7.20;100.00
9091;BME280;4581;42.416;25.598;2024-03-08T12:09:08;98712.44;;;7.27;100.00
9091;BME280;4581;42.416;25.598;2024-03-08T12:11:37;98707.63;;;7.31;100.00
9091;BME280;4581;42.416;25.598;2024-03-08T12:14:04;98708.16;;;7.34;100.00
9091;BME280;4581;42.416;25.598;2024-03-08T12:16:33;98708.56;;;7.22;100.00
9091;BME280;4581;42.416;25.598;2024-03-08T12:19:00;98704.94;;;7.31;100.00
9091;BME280;4581;42.416;25.598;2024-03-08T12:21:27;98705.56;;;7.25;100.00
9091;BME280;4581;42.416;25.598;2024-03-08T12:24:03;98707.94;;;7.28;100.00
9091;BME280;4581;42.416;25.598;2024-03-08T12:26:31;98706.25;;;7.27;100.00
9091;BME280;4581;42.416;25.598;2024-03-08T12:29:23;98705.66;;;7.33;100.00
9091;BME280;4581;42.416;25.598;2024-03-08T12:31:55;98716.63;;;7.39;100.00
9091;BME280;4581;42.416;25.598;2024-03-08T12:34:25;98716.03;;;7.45;100.00
9091;BME280;4581;42.416;25.598;2024-03-08T12:36:54;98711.19;;;7.49;100.00
9091;BME280;4581;42.416;25.598;2024-03-08T12:39:22;98708.06;;;7.53;100.00
9091;BME280;4581;42.416;25.598;2024-03-08T12:41:49;98710.03;;;7.51;100.00
9091;BME280;4581;42.416;25.598;2024-03-08T12:44:19;98699.25;;;7.61;100.00
9091;BME280;4581;42.416;25.598;2024-03-08T12:46:48;98710.13;;;7.60;100.00
9091;BME280;4581;42.416;25.598;2024-03-08T12:49:19;98706.38;;;7.52;100.00
9091;BME280;4581;42.416;25.598;2024-03-08T12:51:48;98712.59;;;7.53;100.00
9091;BME280;4581;42.416;25.598;2024-03-08T12:54:15;98706.91;;;7.56;100.00
9091;BME280;4581;42.416;25.598;2024-03-08T12:56:42;98710.13;;;7.60;100.00
9091;BME280;4581;42.416;25.598;2024-03-08T12:59:09;98709.44;;;7.58;100.00
9091;BME280;4581;42.416;25.598;2024-03-08T13:01:36;98713.59;;;7.70;100.00
9091;BME280;4581;42.416;25.598;2024-03-08T13:04:04;98706.31;;;7.62;100.00
9091;BME280;4581;42.416;25.598;2024-03-08T13:06:33;98713.72;;;7.68;100.00
9091;BME280;4581;42.416;25.598;2024-03-08T13:09:00;98707.47;;;7.77;100.00
9091;BME280;4581;42.416;25.598;2024-03-08T13:11:32;98703.75;;;7.78;100.00
9091;BME280;4581;42.416;25.598;2024-03-08T13:14:04;98701.69;;;7.90;99.94
9091;BME280;4581;42.416;25.598;2024-03-08T13:16:32;98700.69;;;7.91;99.90
9091;BME280;4581;42.416;25.598;2024-03-08T13:19:01;98702.59;;;7.98;99.97
9091;BME280;4581;42.416;25.598;2024-03-08T13:21:28;98703.44;;;7.99;98.82
9091;BME280;4581;42.416;25.598;2024-03-08T13:23:56;98704.91;;;7.93;97.33
9091;BME280;4581;42.416;25.598;2024-03-08T13:26:25;98714.19;;;7.81;95.54
9091;BME280;4581;42.416;25.598;2024-03-08T13:28:56;98706.44;;;7.78;97.17